Time;durP1;ratioP1;P1;durP2;ratioP2;P2;SDS_P1;SDS_P2;PMS_P1;PMS_P2;Temp;Humidity;BMP_temperature;BMP_pressure;BME280_temperature;BME280_humidity;BME280_pressure;Samples;Min_cycle;Max_cycle;Signal;HPM_P1;HPM_P2
2022/01/06 00:00:35;;;;;;;4.10;0.93;;;8.00;46.60;;;;;;6359588;27;20455;-68
2022/01/06 00:03:37;;;;;;;0.55;0.40;;;8.00;46.40;;;;;;6362043;27;20487;-69
2022/01/06 00:06:41;;;;;;;10.20;0.80;;;8.10;46.40;;;;;;6375265;27;20050;-68
2022/01/06 00:09:42;;;;;;;2.50;0.35;;;8.10;46.30;;;;;;6374448;27;20069;-69
2022/01/06 00:12:50;;;;;;;4.68;0.57;;;8.10;46.20;;;;;;6374581;27;20038;-69
2022/01/06 00:25:25;;;;;;;7.07;0.77;;;8.10;46.20;;;;;;6345841;28;20456;-68
2022/01/06 00:28:27;;;;;;;1.95;0.60;;;8.10;46.20;;;;;;6347775;27;20120;-69
2022/01/06 00:31:28;;;;;;;2.50;0.82;;;8.10;46.00;;;;;;6366602;27;20393;-68
2022/01/06 00:34:29;;;;;;;1.65;0.70;;;8.10;45.90;;;;;;6347782;27;20377;-70
2022/01/06 00:37:30;;;;;;;1.88;1.00;;;8.10;45.90;;;;;;6419822;27;20053;-69
2022/01/06 00:40:32;;;;;;;3.15;0.63;;;8.10;45.70;;;;;;6422695;27;20450;-68
2022/01/06 00:43:33;;;;;;;9.95;0.98;;;8.10;45.90;;;;;;6385869;27;20368;-68
2022/01/06 00:46:35;;;;;;;1.15;0.60;;;8.10;45.90;;;;;;6370668;27;20023;-68
2022/01/06 00:49:36;;;;;;;0.95;0.68;;;8.10;45.80;;;;;;6353634;27;20039;-68
2022/01/06 00:52:38;;;;;;;4.18;1.13;;;8.20;45.70;;;;;;6371930;27;20047;-68
2022/01/06 00:55:40;;;;;;;1.05;0.50;;;8.20;45.50;;;;;;6371698;27;20057;-69
2022/01/06 00:58:41;;;;;;;4.40;0.57;;;8.20;45.60;;;;;;6369459;28;20050;-69
2022/01/06 01:01:42;;;;;;;0.70;0.20;;;8.20;45.60;;;;;;6353941;28;20395;-69
2022/01/06 01:04:43;;;;;;;6.85;1.05;;;8.20;45.60;;;;;;6343457;28;20054;-69
2022/01/06 01:07:44;;;;;;;2.78;0.98;;;8.30;45.50;;;;;;6343324;28;20043;-68
2022/01/06 01:10:47;;;;;;;0.77;0.45;;;8.30;45.50;;;;;;6371967;28;20459;-68
2022/01/06 01:13:55;;;;;;;1.70;0.45;;;8.30;45.40;;;;;;6371063;28;20118;-68
2022/01/06 01:16:59;;;;;;;;;;;8.40;45.30;;;;;;6371688;28;20047;-69
2022/01/06 01:20:01;;;;;;;2.08;0.60;;;8.40;45.30;;;;;;6352585;28;19919;-69
2022/01/06 01:23:02;;;;;;;0.98;0.57;;;8.30;45.30;;;;;;6371878;28;20031;-69
2022/01/06 01:26:03;;;;;;;2.75;0.63;;;8.40;45.20;;;;;;6339290;28;20039;-68
2022/01/06 01:29:09;;;;;;;3.65;0.73;;;8.40;45.80;;;;;;6356598;28;20016;-68
2022/01/06 01:32:10;;;;;;;1.13;0.32;;;8.40;45.20;;;;;;6345852;28;20020;-69
2022/01/06 01:35:12;;;;;;;4.25;1.33;;;8.50;44.90;;;;;;6349246;28;20039;-69
2022/01/06 01:38:13;;;;;;;0.70;0.35;;;8.50;45.20;;;;;;6349505;28;20448;-68
2022/01/06 01:41:15;;;;;;;4.50;0.68;;;8.50;45.10;;;;;;6367336;28;20046;-69
2022/01/06 01:44:19;;;;;;;4.15;1.02;;;8.60;44.80;;;;;;6332854;28;20023;-69
2022/01/06 01:47:38;;;;;;;10.60;0.50;;;8.60;44.60;;;;;;6367761;28;20031;-70
2022/01/06 01:50:39;;;;;;;3.45;0.93;;;8.60;44.70;;;;;;6340203;28;20028;-69
2022/01/06 01:53:40;;;;;;;9.73;0.60;;;8.60;44.50;;;;;;6312237;28;20028;-68
2022/01/06 01:56:41;;;;;;;4.13;0.38;;;8.60;45.00;;;;;;6335824;27;20118;-69
2022/01/06 01:59:44;;;;;;;0.65;0.63;;;8.60;44.80;;;;;;6347252;27;20019;-69
2022/01/06 02:02:45;;;;;;;2.60;0.95;;;8.70;44.70;;;;;;6372246;27;20031;-68
2022/01/06 02:05:46;;;;;;;1.45;0.43;;;8.70;44.80;;;;;;6342017;28;20099;-68
2022/01/06 02:08:47;;;;;;;7.90;0.98;;;8.70;44.60;;;;;;6328747;28;20032;-68
2022/01/06 02:11:48;;;;;;;2.58;0.70;;;8.60;44.20;;;;;;6328770;28;20036;-68
2022/01/06 02:14:49;;;;;;;1.27;0.70;;;8.60;43.60;;;;;;6346262;28;20059;-68
2022/01/06 02:17:50;;;;;;;0.85;0.57;;;8.50;43.40;;;;;;6346491;28;20031;-68
2022/01/06 02:20:52;;;;;;;2.38;0.93;;;8.40;43.40;;;;;;6337254;27;20030;-68
2022/01/06 02:23:54;;;;;;;3.28;1.08;;;8.40;43.80;;;;;;6353901;27;20557;-69
2022/01/06 02:26:55;;;;;;;0.35;0.30;;;8.40;44.00;;;;;;6336313;27;20111;-69
2022/01/06 02:29:56;;;;;;;2.35;0.55;;;8.40;43.60;;;;;;6336237;27;20027;-68
2022/01/06 02:33:00;;;;;;;1.98;0.50;;;8.40;44.10;;;;;;6371513;27;20538;-68
2022/01/06 02:36:01;;;;;;;1.23;1.10;;;8.40;44.40;;;;;;6352052;27;20132;-68
2022/01/06 02:39:02;;;;;;;0.45;0.40;;;8.40;44.50;;;;;;6371457;27;20035;-68
2022/01/06 02:42:04;;;;;;;1.10;0.50;;;8.40;44.50;;;;;;6353236;27;20027;-67
2022/01/06 02:45:06;;;;;;;3.90;0.75;;;8.50;44.50;;;;;;6353302;27;20453;-68
2022/01/06 02:48:10;;;;;;;3.97;0.98;;;8.50;44.40;;;;;;6352952;27;20386;-70
2022/01/06 02:51:11;;;;;;;1.08;0.70;;;8.50;44.10;;;;;;6352694;27;20031;-69
2022/01/06 02:54:13;;;;;;;2.10;0.40;;;8.50;44.30;;;;;;6352919;27;20555;-68
2022/01/06 02:57:15;;;;;;;0.55;0.25;;;8.50;44.40;;;;;;6352712;27;20275;-67
2022/01/06 03:00:17;;;;;;;4.13;0.65;;;8.60;44.50;;;;;;6334760;28;20024;-67
2022/01/06 03:03:19;;;;;;;1.60;0.55;;;8.60;44.90;;;;;;6320486;27;20091;-68
2022/01/06 03:06:21;;;;;;;2.20;0.45;;;8.60;45.00;;;;;;6370403;27;20466;-68
2022/01/06 03:09:35;;;;;;;1.98;0.20;;;8.60;45.10;;;;;;6370661;27;20035;-68
2022/01/06 03:12:41;;;;;;;0.95;0.50;;;8.60;44.90;;;;;;6370693;27;20030;-67
2022/01/06 03:15:42;;;;;;;3.88;0.88;;;8.70;44.80;;;;;;6352427;27;20066;-68
2022/01/06 03:18:43;;;;;;;1.60;0.50;;;8.60;44.80;;;;;;6352634;27;20492;-68
2022/01/06 03:21:44;;;;;;;5.47;1.08;;;8.60;45.10;;;;;;6347880;27;20022;-68
2022/01/06 03:24:45;;;;;;;7.45;0.90;;;8.60;44.90;;;;;;6310620;27;20112;-68
2022/01/06 03:27:46;;;;;;;1.73;0.80;;;8.60;45.00;;;;;;6330152;27;20023;-67
2022/01/06 03:30:47;;;;;;;0.60;0.50;;;8.60;45.20;;;;;;6343330;27;20031;-67
2022/01/06 03:33:49;;;;;;;2.72;0.30;;;8.70;45.50;;;;;;6342663;27;20428;-67
2022/01/06 03:36:50;;;;;;;2.58;0.98;;;8.70;45.50;;;;;;6344807;27;20460;-67
2022/01/06 03:39:51;;;;;;;2.50;0.85;;;8.70;45.40;;;;;;6355356;27;20075;-69
2022/01/06 03:42:52;;;;;;;8.80;1.17;;;8.70;45.60;;;;;;6341907;27;20401;-69
2022/01/06 03:45:53;;;;;;;3.78;0.63;;;8.70;45.70;;;;;;6344894;27;20122;-68
2022/01/06 03:48:54;;;;;;;3.70;1.13;;;8.70;45.80;;;;;;6359463;27;20024;-69
2022/01/06 03:51:55;;;;;;;3.08;0.70;;;8.70;46.20;;;;;;6362291;27;20088;-68
2022/01/06 03:54:56;;;;;;;0.80;0.45;;;8.60;46.40;;;;;;6343028;27;20097;-68
2022/01/06 03:57:57;;;;;;;5.15;0.77;;;8.60;46.60;;;;;;6343087;27;20023;-68
2022/01/06 04:00:58;;;;;;;3.92;1.15;;;8.60;46.80;;;;;;6357690;27;20034;-68
2022/01/06 04:03:59;;;;;;;1.15;0.57;;;8.60;47.00;;;;;;6321216;27;20028;-68
2022/01/06 04:07:00;;;;;;;3.97;0.90;;;8.60;47.00;;;;;;6342678;27;20019;-68
2022/01/06 04:10:03;;;;;;;2.78;0.60;;;8.60;47.00;;;;;;6343956;27;20024;-67
2022/01/06 04:13:04;;;;;;;4.10;0.60;;;8.70;46.70;;;;;;6359519;27;20058;-67
2022/01/06 04:16:09;;;;;;;3.78;0.55;;;8.70;46.30;;;;;;6340031;27;20035;-68
2022/01/06 04:19:10;;;;;;;6.65;0.77;;;8.60;46.20;;;;;;6344679;27;20032;-68
2022/01/06 04:22:11;;;;;;;3.13;0.73;;;8.60;46.40;;;;;;6357301;27;20024;-68
2022/01/06 04:25:12;;;;;;;1.33;0.50;;;8.60;46.00;;;;;;6339529;27;20023;-68
2022/01/06 04:28:14;;;;;;;4.13;0.63;;;8.60;46.10;;;;;;6360160;27;20031;-68
2022/01/06 04:31:15;;;;;;;0.73;0.50;;;8.60;46.20;;;;;;6339157;27;20096;-68
2022/01/06 04:34:16;;;;;;;1.80;0.50;;;8.60;46.20;;;;;;6339558;27;20038;-68
2022/01/06 04:37:17;;;;;;;3.03;0.55;;;8.60;46.20;;;;;;6355416;27;20122;-68
2022/01/06 04:40:18;;;;;;;5.05;0.70;;;8.60;46.10;;;;;;6340005;27;20110;-68
2022/01/06 04:43:19;;;;;;;2.97;1.08;;;8.60;45.80;;;;;;6341929;27;20356;-68
2022/01/06 04:46:20;;;;;;;0.88;0.60;;;8.70;46.00;;;;;;6360030;27;20460;-68
2022/01/06 04:49:22;;;;;;;6.03;0.93;;;8.60;45.50;;;;;;6355425;27;20039;-68
2022/01/06 04:52:23;;;;;;;2.42;0.98;;;8.60;45.30;;;;;;6343360;27;20459;-68
2022/01/06 04:55:24;;;;;;;4.15;0.77;;;8.50;45.20;;;;;;6358802;27;20027;-68
2022/01/06 04:58:26;;;;;;;4.38;1.20;;;8.50;45.20;;;;;;6355834;28;20034;-68
2022/01/06 05:01:27;;;;;;;0.40;0.30;;;8.50;45.40;;;;;;6341475;28;20016;-68
2022/01/06 05:04:28;;;;;;;1.50;0.90;;;8.50;45.50;;;;;;6338966;28;20023;-68
2022/01/06 05:07:29;;;;;;;2.75;0.47;;;8.50;45.60;;;;;;6342862;28;20478;-68
2022/01/06 05:10:30;;;;;;;2.40;0.80;;;8.50;45.40;;;;;;6355121;28;20039;-68
2022/01/06 05:13:31;;;;;;;4.05;0.90;;;8.50;45.30;;;;;;6356375;28;20054;-67
2022/01/06 05:16:32;;;;;;;2.50;0.70;;;8.50;44.90;;;;;;6356195;28;20159;-69
2022/01/06 05:19:33;;;;;;;5.78;0.75;;;8.40;44.90;;;;;;6358302;28;20035;-69
2022/01/06 05:22:41;;;;;;;0.80;0.35;;;8.40;44.90;;;;;;6340118;28;20031;-68
2022/01/06 05:25:42;;;;;;;0.95;0.50;;;8.40;45.20;;;;;;6357972;28;20024;-68
2022/01/06 05:28:43;;;;;;;4.03;0.70;;;8.40;45.00;;;;;;6331640;27;20118;-68
2022/01/06 05:31:44;;;;;;;7.88;0.73;;;8.30;44.30;;;;;;6347815;27;20114;-69
2022/01/06 05:34:45;;;;;;;0.35;0.20;;;8.30;44.40;;;;;;6344575;27;20031;-69
2022/01/06 05:37:46;;;;;;;1.27;0.45;;;8.30;44.60;;;;;;6340274;28;20048;-69
2022/01/06 05:40:48;;;;;;;1.13;0.50;;;8.30;44.50;;;;;;6339061;28;20023;-68
2022/01/06 05:43:49;;;;;;;2.15;0.35;;;8.20;44.40;;;;;;6338513;28;20058;-69
2022/01/06 05:46:50;;;;;;;1.83;0.77;;;8.20;44.80;;;;;;6338629;28;20024;-69
2022/01/06 05:49:51;;;;;;;2.53;0.50;;;8.20;45.00;;;;;;6336026;28;20028;-68
2022/01/06 05:52:54;;;;;;;0.57;0.35;;;8.20;44.50;;;;;;6336830;28;20143;-68
2022/01/06 05:55:55;;;;;;;3.65;0.65;;;8.20;44.40;;;;;;6337461;28;20042;-68
2022/01/06 05:58:57;;;;;;;2.05;0.50;;;8.20;44.50;;;;;;6331426;28;20568;-69
2022/01/06 06:01:59;;;;;;;0.70;0.47;;;8.20;44.60;;;;;;6340309;28;20055;-68
2022/01/06 06:05:00;;;;;;;4.35;1.30;;;8.10;44.30;;;;;;6337549;28;20015;-68
2022/01/06 06:08:01;;;;;;;1.02;0.40;;;8.10;44.10;;;;;;6339126;28;20024;-71
2022/01/06 06:11:03;;;;;;;2.17;0.82;;;8.10;43.80;;;;;;6323271;28;20054;-69
2022/01/06 06:14:04;;;;;;;4.97;1.05;;;8.10;43.70;;;;;;6340324;28;20096;-70
2022/01/06 06:17:05;;;;;;;8.82;0.70;;;8.10;43.90;;;;;;6338346;28;20030;-68
2022/01/06 06:20:06;;;;;;;0.50;0.35;;;8.10;43.70;;;;;;6338716;28;20036;-68
2022/01/06 06:23:08;;;;;;;0.68;0.50;;;8.00;43.60;;;;;;6335796;28;20026;-68
2022/01/06 06:26:09;;;;;;;2.40;0.90;;;8.00;43.80;;;;;;6336979;28;20078;-69
2022/01/06 06:29:10;;;;;;;0.95;0.50;;;8.00;44.00;;;;;;6335943;28;20027;-69
2022/01/06 06:32:11;;;;;;;0.70;0.52;;;7.90;43.90;;;;;;6335903;28;20483;-69
2022/01/06 06:35:12;;;;;;;0.52;0.30;;;8.00;44.20;;;;;;6320665;27;20553;-69
2022/01/06 06:38:13;;;;;;;0.25;0.25;;;7.90;44.10;;;;;;6359876;27;20020;-69
2022/01/06 06:41:14;;;;;;;4.55;0.50;;;8.00;44.20;;;;;;6363140;27;20135;-73
2022/01/06 06:44:15;;;;;;;2.28;0.90;;;8.00;44.40;;;;;;6358826;27;20050;-69
2022/01/06 06:47:16;;;;;;;1.88;1.02;;;8.00;44.60;;;;;;6342035;27;20043;-69
2022/01/06 06:50:18;;;;;;;0.60;0.57;;;8.00;44.70;;;;;;6341710;27;20030;-69
2022/01/06 06:53:19;;;;;;;1.92;0.73;;;8.10;44.90;;;;;;6362573;27;20023;-69
2022/01/06 06:56:20;;;;;;;4.55;0.82;;;8.00;44.70;;;;;;6345913;27;20109;-69
2022/01/06 06:59:21;;;;;;;1.70;0.55;;;8.00;44.70;;;;;;6342725;27;20143;-68
2022/01/06 07:02:22;;;;;;;2.95;0.70;;;8.00;44.80;;;;;;6364363;27;20015;-70
2022/01/06 07:05:23;;;;;;;0.98;0.75;;;8.00;44.80;;;;;;6346143;27;20030;-69
2022/01/06 07:08:24;;;;;;;3.10;1.00;;;8.00;44.80;;;;;;6345011;27;20027;-69
2022/01/06 07:11:25;;;;;;;1.65;0.68;;;8.00;44.90;;;;;;6359158;27;20054;-69
2022/01/06 07:14:26;;;;;;;1.08;0.55;;;8.00;44.80;;;;;;6358427;27;20022;-69
2022/01/06 07:17:27;;;;;;;4.88;0.85;;;8.00;44.90;;;;;;6342627;27;20107;-69
2022/01/06 07:20:28;;;;;;;3.97;0.80;;;7.90;45.20;;;;;;6349421;27;20023;-67
2022/01/06 07:23:29;;;;;;;3.05;0.80;;;7.90;45.40;;;;;;6357430;27;20059;-69
2022/01/06 07:26:32;;;;;;;2.63;0.85;;;7.90;45.60;;;;;;6357651;27;20038;-68
2022/01/06 07:29:33;;;;;;;8.73;1.27;;;7.90;45.70;;;;;;6355078;27;20035;-69
2022/01/06 07:32:48;;;;;;;4.20;0.98;;;7.90;45.70;;;;;;6339596;27;20027;-69
2022/01/06 07:35:49;;;;;;;2.40;0.90;;;7.90;45.80;;;;;;6366494;27;20496;-68
2022/01/06 07:38:52;;;;;;;2.70;1.00;;;7.90;45.70;;;;;;6314730;27;20031;-68
2022/01/06 07:41:53;;;;;;;3.75;1.02;;;7.90;45.70;;;;;;6341759;27;20085;-68
2022/01/06 07:44:58;;;;;;;1.10;0.57;;;7.90;45.70;;;;;;6341604;27;20039;-69
2022/01/06 07:52:22;;;;;;;2.35;0.90;;;7.90;45.50;;;;;;6355190;27;20028;-68
2022/01/06 07:55:23;;;;;;;3.05;1.10;;;7.90;45.60;;;;;;6362442;27;20375;-67
2022/01/06 07:58:25;;;;;;;3.53;0.70;;;7.80;45.20;;;;;;6341667;27;20027;-70
2022/01/06 08:01:26;;;;;;;2.13;0.80;;;7.90;45.10;;;;;;6342779;27;20034;-68
2022/01/06 08:04:28;;;;;;;4.15;1.02;;;8.00;44.70;;;;;;6358223;27;20354;-68
2022/01/06 08:07:29;;;;;;;6.65;1.00;;;7.90;44.80;;;;;;6354935;27;20624;-69
2022/01/06 08:10:30;;;;;;;6.35;1.50;;;8.00;45.00;;;;;;6345430;27;20027;-69
2022/01/06 08:13:31;;;;;;;3.60;1.10;;;8.00;44.80;;;;;;6343558;27;20056;-68
2022/01/06 08:16:32;;;;;;;2.10;1.20;;;8.00;44.70;;;;;;6361794;27;20026;-69
2022/01/06 08:19:33;;;;;;;4.18;1.30;;;8.00;44.90;;;;;;6362999;27;20019;-68
2022/01/06 08:22:35;;;;;;;2.58;1.02;;;8.10;44.90;;;;;;6328514;27;20015;-68
2022/01/06 08:25:36;;;;;;;3.53;1.33;;;8.10;45.00;;;;;;6360708;27;20015;-69
2022/01/06 08:28:37;;;;;;;3.53;1.10;;;8.10;44.70;;;;;;6344381;27;20027;-69
2022/01/06 08:31:38;;;;;;;2.97;1.17;;;8.20;44.80;;;;;;6359407;27;20632;-69
2022/01/06 08:34:39;;;;;;;4.60;0.80;;;8.20;44.90;;;;;;6361665;27;20455;-68
2022/01/06 08:37:41;;;;;;;2.42;0.95;;;8.30;44.90;;;;;;6341827;27;20123;-68
2022/01/06 08:40:42;;;;;;;2.78;0.77;;;8.30;44.60;;;;;;6343659;27;20073;-69
2022/01/06 08:43:43;;;;;;;1.98;0.75;;;8.40;44.50;;;;;;6343822;27;20034;-68
2022/01/06 08:46:46;;;;;;;1.42;1.15;;;8.40;44.50;;;;;;6361802;27;20051;-70
2022/01/06 08:49:47;;;;;;;2.72;0.93;;;8.50;44.40;;;;;;6339385;27;20137;-68
2022/01/06 08:52:50;;;;;;;4.32;0.52;;;8.60;43.90;;;;;;6322995;28;20461;-69
2022/01/06 08:55:52;;;;;;;0.77;0.47;;;8.60;44.00;;;;;;6341921;28;20030;-69
2022/01/06 08:58:53;;;;;;;6.15;1.08;;;8.70;44.00;;;;;;6337576;28;20504;-69
2022/01/06 09:01:55;;;;;;;6.93;1.10;;;8.80;44.00;;;;;;6358445;27;20401;-69
2022/01/06 09:04:56;;;;;;;2.92;1.30;;;9.00;43.80;;;;;;6359200;28;20019;-69
2022/01/06 09:07:57;;;;;;;6.15;3.20;;;9.10;43.70;;;;;;6342385;28;20082;-69
2022/01/06 09:10:59;;;;;;;7.38;1.45;;;9.20;43.50;;;;;;6321887;28;20034;-69
2022/01/06 09:14:00;;;;;;;5.97;1.95;;;9.20;43.10;;;;;;6340087;28;20108;-70
2022/01/06 09:17:01;;;;;;;1.80;1.33;;;9.30;43.30;;;;;;6342329;28;20030;-70
2022/01/06 09:20:07;;;;;;;5.97;1.15;;;9.30;43.00;;;;;;6338364;28;20116;-69
2022/01/06 09:23:08;;;;;;;3.45;1.13;;;9.30;42.60;;;;;;6342152;28;20076;-69
2022/01/06 09:26:09;;;;;;;2.42;1.35;;;9.30;42.50;;;;;;6338682;28;20410;-69
2022/01/06 09:29:13;;;;;;;1.13;0.70;;;9.30;42.70;;;;;;6337853;28;20066;-68
2022/01/06 09:36:38;;;;;;;5.10;1.02;;;9.30;42.10;;;;;;6358777;28;20035;-69
2022/01/06 09:39:41;;;;;;;2.92;1.35;;;9.30;42.20;;;;;;6340817;28;20214;-69
2022/01/06 09:42:43;;;;;;;1.58;1.02;;;9.30;42.50;;;;;;6342656;28;20027;-69
2022/01/06 09:45:44;;;;;;;3.83;1.35;;;9.30;42.30;;;;;;6360292;28;20067;-70
2022/01/06 09:48:45;;;;;;;2.15;1.08;;;9.30;42.20;;;;;;6338064;28;20560;-69
2022/01/06 09:51:46;;;;;;;18.83;5.10;;;9.20;42.30;;;;;;6341633;28;20024;-68
2022/01/06 09:54:47;;;;;;;4.95;1.25;;;9.20;42.30;;;;;;6360389;28;20482;-69
2022/01/06 09:57:58;;;;;;;8.85;1.70;;;9.20;42.30;;;;;;6358378;28;20027;-69
2022/01/06 10:00:59;;;;;;;5.10;1.73;;;9.20;42.40;;;;;;6323673;28;20057;-68
2022/01/06 10:04:00;;;;;;;12.82;4.63;;;9.20;42.50;;;;;;6338179;28;20020;-69
2022/01/06 10:07:08;;;;;;;9.93;3.05;;;9.20;42.60;;;;;;6339924;28;20023;-70
2022/01/06 10:10:12;;;;;;;10.05;3.67;;;9.30;42.40;;;;;;6360350;28;20360;-68
2022/01/06 10:13:16;;;;;;;9.23;2.38;;;9.30;42.40;;;;;;6357550;27;20551;-69
2022/01/06 10:16:18;;;;;;;5.13;1.60;;;9.30;42.20;;;;;;6331547;27;20032;-69
2022/01/06 10:19:20;;;;;;;3.58;1.38;;;9.30;42.40;;;;;;6331299;27;20031;-69
2022/01/06 10:22:21;;;;;;;10.32;3.50;;;9.40;42.30;;;;;;6359596;27;20090;-69
2022/01/06 10:25:25;;;;;;;16.60;3.63;;;9.40;42.20;;;;;;6344794;27;20020;-69
2022/01/06 10:28:26;;;;;;;5.55;1.20;;;9.50;42.70;;;;;;6342997;27;20374;-69
2022/01/06 10:31:30;;;;;;;5.40;1.05;;;9.50;42.00;;;;;;6343664;27;20106;-69
2022/01/06 10:34:33;;;;;;;2.92;1.00;;;9.50;41.80;;;;;;6343011;27;20050;-68
2022/01/06 10:37:40;;;;;;;12.07;1.40;;;9.60;41.80;;;;;;6360275;27;20051;-69
2022/01/06 10:40:41;;;;;;;1.92;0.98;;;9.60;41.80;;;;;;6361307;27;20024;-70
2022/01/06 10:43:51;;;;;;;5.15;1.58;;;9.60;41.60;;;;;;6357070;27;20026;-69
2022/01/06 10:46:57;;;;;;;3.40;1.23;;;9.60;41.40;;;;;;6346132;27;20015;-69
2022/01/06 10:50:19;;;;;;;2.20;0.93;;;9.60;41.70;;;;;;6360948;27;20027;-69
2022/01/06 10:53:20;;;;;;;2.90;1.10;;;9.60;41.70;;;;;;6362521;27;20222;-69
2022/01/06 10:56:24;;;;;;;2.72;1.17;;;9.70;41.70;;;;;;6342643;27;20031;-69
2022/01/06 10:59:29;;;;;;;5.25;1.27;;;9.80;41.80;;;;;;6343592;27;20045;-69
2022/01/06 11:02:30;;;;;;;3.83;1.58;;;9.90;41.70;;;;;;6359992;27;20020;-70
2022/01/06 11:05:30;;;;;;;8.55;1.23;;;10.30;41.20;;;;;;6360303;27;20020;-69
2022/01/06 11:08:36;;;;;;;3.10;1.50;;;10.40;40.90;;;;;;6361787;27;20025;-69
2022/01/06 11:14:58;;;;;;;2.03;0.88;;;10.40;40.60;;;;;;6359626;27;20084;-71
2022/01/06 11:18:04;;;;;;;5.45;1.00;;;10.30;40.50;;;;;;6342032;27;20027;-69
2022/01/06 11:21:14;;;;;;;7.50;0.80;;;10.20;40.60;;;;;;6341536;27;20076;-70
2022/01/06 11:24:20;;;;;;;1.50;0.90;;;10.10;40.50;;;;;;6345263;27;20038;-70
2022/01/06 11:27:33;;;;;;;2.83;0.82;;;10.10;40.70;;;;;;6326599;27;20021;-71
2022/01/06 11:30:50;;;;;;;5.53;1.50;;;10.00;41.00;;;;;;6357110;27;20034;-69
2022/01/06 11:33:55;;;;;;;7.10;1.38;;;9.90;40.80;;;;;;6359853;27;20062;-71
2022/01/06 11:36:56;;;;;;;3.60;1.15;;;9.90;41.10;;;;;;6329203;27;20046;-70
2022/01/06 11:40:03;;;;;;;5.47;1.13;;;10.00;41.40;;;;;;6341134;27;20027;-70
2022/01/06 11:43:04;;;;;;;8.43;1.52;;;10.00;41.40;;;;;;6361875;27;20023;-70
2022/01/06 11:46:06;;;;;;;6.95;1.23;;;10.00;41.40;;;;;;6326742;27;20030;-70
2022/01/06 11:49:06;;;;;;;9.50;1.38;;;10.10;41.20;;;;;;6356457;27;20039;-69
2022/01/06 11:52:11;;;;;;;1.50;1.00;;;10.10;41.20;;;;;;6343792;27;20026;-70
2022/01/06 11:55:17;;;;;;;6.22;1.10;;;10.00;41.30;;;;;;6359200;27;20023;-69
2022/01/06 11:58:21;;;;;;;4.88;0.93;;;10.00;41.50;;;;;;6338548;27;20466;-71
2022/01/06 12:01:22;;;;;;;3.67;1.17;;;10.00;41.60;;;;;;6359949;27;20035;-69
2022/01/06 12:04:24;;;;;;;3.08;1.23;;;10.00;41.70;;;;;;6341441;27;20047;-69
2022/01/06 12:07:26;;;;;;;1.80;0.93;;;10.00;41.70;;;;;;6345679;27;20124;-70
2022/01/06 12:10:43;;;;;;;3.85;1.08;;;10.10;41.70;;;;;;6326204;27;20545;-69
2022/01/06 12:13:45;;;;;;;2.00;1.17;;;10.20;41.50;;;;;;6359976;27;20495;-70
2022/01/06 12:16:46;;;;;;;2.40;1.00;;;10.20;41.40;;;;;;6358322;27;20483;-70
2022/01/06 12:19:47;;;;;;;3.70;1.33;;;10.30;41.20;;;;;;6341267;27;20030;-70
2022/01/06 12:22:49;;;;;;;2.55;1.10;;;10.30;41.00;;;;;;6325639;27;20026;-69
2022/01/06 12:26:07;;;;;;;5.30;0.90;;;10.30;41.00;;;;;;6339372;27;20020;-70
2022/01/06 12:29:20;;;;;;;3.08;1.20;;;10.40;41.20;;;;;;6342293;27;20523;-70
2022/01/06 12:32:21;;;;;;;4.07;1.50;;;10.40;41.10;;;;;;6359902;27;20023;-69
2022/01/06 12:35:39;;;;;;;3.67;1.30;;;10.50;41.00;;;;;;6321218;27;20116;-70
2022/01/06 12:38:40;;;;;;;1.83;0.93;;;10.50;41.00;;;;;;6343861;27;20412;-70
2022/01/06 12:41:42;;;;;;;4.35;1.10;;;10.60;41.00;;;;;;6358782;27;20479;-70
2022/01/06 12:44:43;;;;;;;4.07;1.13;;;10.60;40.70;;;;;;6355446;27;20556;-70
2022/01/06 12:47:47;;;;;;;4.47;0.80;;;10.60;40.90;;;;;;6345306;27;20023;-70
2022/01/06 12:50:49;;;;;;;8.70;1.17;;;10.50;40.80;;;;;;6342125;27;20466;-70
2022/01/06 12:54:18;;;;;;;3.83;1.27;;;10.50;41.70;;;;;;6356418;27;20383;-70
2022/01/06 12:57:18;;;;;;;3.60;1.40;;;10.40;41.80;;;;;;6350470;27;20096;-70
2022/01/06 13:00:20;;;;;;;9.13;2.00;;;10.40;42.30;;;;;;6338236;28;20015;-70
2022/01/06 13:03:35;;;;;;;6.20;2.17;;;10.30;42.40;;;;;;6343419;28;20025;-72
2022/01/06 13:06:38;;;;;;;5.13;1.30;;;10.20;42.30;;;;;;6336825;28;20034;-71
2022/01/06 13:09:42;;;;;;;4.47;1.35;;;10.30;42.00;;;;;;6342632;28;20027;-70
2022/01/06 13:12:43;;;;;;;7.93;1.70;;;10.40;42.10;;;;;;6340186;28;20647;-70
2022/01/06 13:15:44;;;;;;;2.90;1.35;;;10.40;42.00;;;;;;6327867;28;20055;-69
2022/01/06 13:18:57;;;;;;;3.30;1.08;;;10.40;41.90;;;;;;6358516;28;20029;-69
2022/01/06 13:22:03;;;;;;;2.83;1.27;;;10.40;41.90;;;;;;6322125;28;20433;-69
2022/01/06 13:25:12;;;;;;;3.40;1.00;;;10.50;42.10;;;;;;6356580;28;20012;-70
2022/01/06 13:28:14;;;;;;;3.35;1.35;;;10.50;42.10;;;;;;6345954;28;20084;-69
2022/01/06 13:31:17;;;;;;;3.90;1.70;;;10.60;42.20;;;;;;6327075;28;20059;-70
2022/01/06 13:34:18;;;;;;;6.45;1.67;;;10.60;42.10;;;;;;6356927;28;20015;-70
2022/01/06 13:37:20;;;;;;;2.00;0.90;;;10.70;42.00;;;;;;6351130;28;20053;-68
2022/01/06 13:40:21;;;;;;;4.80;1.40;;;10.70;41.80;;;;;;6342192;28;20045;-69
2022/01/06 13:43:24;;;;;;;1.25;1.08;;;10.80;41.40;;;;;;6323702;28;20598;-70
2022/01/06 13:46:40;;;;;;;6.82;1.63;;;10.80;41.50;;;;;;6337974;28;20058;-70
2022/01/06 13:53:00;;;;;;;9.55;1.95;;;10.90;41.20;;;;;;6341566;27;20439;-70
2022/01/06 13:56:19;;;;;;;5.13;1.20;;;10.90;41.10;;;;;;6343442;27;20381;-69
2022/01/06 13:59:21;;;;;;;5.82;1.10;;;11.00;41.00;;;;;;6344387;27;20049;-72
2022/01/06 14:02:22;;;;;;;2.13;0.90;;;11.00;40.90;;;;;;6343594;27;20930;-69
2022/01/06 14:05:24;;;;;;;11.43;1.40;;;11.00;41.00;;;;;;6360506;27;20030;-71
2022/01/06 14:08:26;;;;;;;2.08;1.02;;;11.00;41.10;;;;;;6359251;27;20023;-70
2022/01/06 14:11:27;;;;;;;2.85;1.17;;;11.00;40.80;;;;;;6346556;27;20050;-69
2022/01/06 14:14:28;;;;;;;5.70;1.33;;;11.00;40.70;;;;;;6363484;27;20508;-70
2022/01/06 14:17:29;;;;;;;3.33;1.00;;;11.00;40.90;;;;;;6360713;27;20020;-69
2022/01/06 14:20:30;;;;;;;3.45;1.20;;;10.90;40.60;;;;;;6345452;27;20020;-69
2022/01/06 14:23:34;;;;;;;1.67;0.98;;;10.90;40.60;;;;;;6342689;27;20391;-70
2022/01/06 14:26:35;;;;;;;2.15;1.10;;;10.90;40.60;;;;;;6340163;27;20098;-70
2022/01/06 14:29:36;;;;;;;6.07;1.48;;;10.90;40.50;;;;;;6360230;27;20053;-70
2022/01/06 14:32:37;;;;;;;3.90;1.60;;;10.90;40.50;;;;;;6341099;27;20019;-69
2022/01/06 14:35:39;;;;;;;3.25;1.30;;;10.90;40.50;;;;;;6340969;27;20039;-70
2022/01/06 14:38:42;;;;;;;7.65;1.55;;;10.90;40.50;;;;;;6327291;27;20074;-70
2022/01/06 14:41:43;;;;;;;2.90;1.23;;;11.00;40.60;;;;;;6362794;27;20062;-69
2022/01/06 14:44:44;;;;;;;1.73;0.98;;;11.00;40.80;;;;;;6339534;27;20065;-69
2022/01/06 14:47:45;;;;;;;6.47;1.30;;;11.00;40.70;;;;;;6360436;27;20015;-68
2022/01/06 14:50:46;;;;;;;1.95;1.30;;;11.00;40.80;;;;;;6359828;27;20023;-69
2022/01/06 14:53:48;;;;;;;3.78;1.55;;;11.00;41.10;;;;;;6361187;27;20023;-69
2022/01/06 14:56:49;;;;;;;5.60;1.45;;;11.00;41.30;;;;;;6361050;27;20011;-68
2022/01/06 14:59:50;;;;;;;4.75;1.27;;;10.90;41.40;;;;;;6328036;27;20024;-69
2022/01/06 15:02:51;;;;;;;2.60;1.05;;;10.90;41.90;;;;;;6339334;27;20020;-69
2022/01/06 15:05:52;;;;;;;4.88;1.60;;;10.90;42.20;;;;;;6361676;27;20027;-70
2022/01/06 15:08:53;;;;;;;9.77;1.60;;;10.90;42.30;;;;;;6362324;27;20364;-70
2022/01/06 15:11:55;;;;;;;2.35;1.17;;;10.80;42.50;;;;;;6360864;27;20023;-70
2022/01/06 15:14:57;;;;;;;4.32;1.60;;;10.80;42.80;;;;;;6343474;27;20035;-69
2022/01/06 15:17:58;;;;;;;2.35;1.30;;;10.80;43.10;;;;;;6359776;27;20019;-71
2022/01/06 15:21:01;;;;;;;7.72;1.70;;;10.80;43.40;;;;;;6360100;27;20133;-69
2022/01/06 15:24:03;;;;;;;7.00;1.50;;;10.70;43.70;;;;;;6362382;27;20088;-69
2022/01/06 15:27:04;;;;;;;10.18;1.52;;;10.60;43.90;;;;;;6361001;27;20102;-69
2022/01/06 15:30:06;;;;;;;3.13;1.20;;;10.60;44.20;;;;;;6357953;27;20065;-70
2022/01/06 15:33:07;;;;;;;4.00;1.63;;;10.50;44.10;;;;;;6328854;27;20448;-70
2022/01/06 15:36:08;;;;;;;4.63;1.42;;;10.50;44.30;;;;;;6358489;27;20031;-70
2022/01/06 15:39:09;;;;;;;11.45;1.85;;;10.40;44.40;;;;;;6325365;27;20076;-70
2022/01/06 15:42:11;;;;;;;5.57;1.50;;;10.40;44.60;;;;;;6328082;27;20044;-69
2022/01/06 15:45:12;;;;;;;2.97;1.80;;;10.40;44.60;;;;;;6342315;27;20031;-69
2022/01/06 15:48:13;;;;;;;3.75;1.33;;;10.30;44.40;;;;;;6343555;27;20031;-70
2022/01/06 15:51:14;;;;;;;2.80;1.27;;;10.30;44.40;;;;;;6326905;27;20035;-69
2022/01/06 15:54:17;;;;;;;2.40;1.20;;;10.20;44.40;;;;;;6344365;27;20022;-69
2022/01/06 15:57:18;;;;;;;2.80;1.30;;;10.20;44.40;;;;;;6360772;27;20034;-70
2022/01/06 16:00:37;;;;;;;3.33;1.02;;;10.20;44.40;;;;;;6338083;27;20026;-70
2022/01/06 16:07:00;;;;;;;3.55;1.20;;;10.20;44.10;;;;;;6340803;27;20023;-69
2022/01/06 16:10:03;;;;;;;3.15;1.50;;;10.20;44.20;;;;;;6327049;27;20034;-69
2022/01/06 16:13:04;;;;;;;5.68;1.52;;;10.20;44.40;;;;;;6361597;27;20022;-69
2022/01/06 16:16:07;;;;;;;4.85;1.75;;;10.20;44.60;;;;;;6362263;27;20102;-69
2022/01/06 16:19:08;;;;;;;3.70;1.20;;;10.20;44.70;;;;;;6339059;27;20087;-69
2022/01/06 16:22:09;;;;;;;6.93;1.42;;;10.10;44.80;;;;;;6325338;27;20023;-70
2022/01/06 16:25:12;;;;;;;1.95;1.27;;;10.10;44.90;;;;;;6361776;27;20390;-70